Kezdőlap
METAR-TAF:

METAR-TAF

Repülőterek :

Dzsingisz Kán nemzetközi repülőtér

Ulánbátor, Mongólia

földrajzi szélesség: 47-55N, földrajzi hosszúság: 106-52E, magasság: 1306 m

Jelenlegi meteorológiai megfigyelések

A jelentés 15 perccel ezelõtt készült, 10:30 UTC
Különbözõ irányokból fújó szél 4 kt
Hőmérséklet -15°C
Páratartalom 78%
Légköri nyomás 1019 hPa
Látótávolság: 8000 m

METAR: ZMUB 131030Z VRB02MPS 8000NW NSC M15/M18 Q1019 NOSIG RMK QFE656.9 78 NT

Idő: 18:45 (10:45 UTC)

Előrejelzés

A jelentés 6 órával és 5 perccel ezelõtt készült, 04:40 UTC
Az előrejelzés 13-én 06 óra UTC és 14-én 12 óra UTC között érvényes
Különbözõ irányokból fújó szél 4 kt
Látótávolság: 6000 m
Szórványos felhőzet 10000 lábon

TAF: ZMUB 130440Z 1306/1412 VRB02MPS 6000 SCT100 TXM08/1307Z TNM23/1323Z

Meteorológiai megfigyelések és előrejelzések több, mint 4000 repülőtéren (METAR és TAF jelentéseket).

A térképen piros és sárga pontok jelzik az elérhető meteorológiai állomásokat.

Mozgassa az egeret a pont fölött, hogy megjelenjen az állomás neve.

Azután kattintson az időjárási megfigyelések és előrejelzések megtekintéséhez.

A térkép megváltoztatása: kattintson a fekete keresztel jelölt zöld gombra ráközelítéshez, a vonallal jelölt zöld gombra távolításhoz, vagy a zöld nyilakra a szomszédos térképek eléréséhez.


METAR-TAF: